Time;durP1;ratioP1;P1;durP2;ratioP2;P2;SDS_P1;SDS_P2;PMS_P1;PMS_P2;Temp;Humidity;BMP_temperature;BMP_pressure;BME280_temperature;BME280_humidity;BME280_pressure;Samples;Min_cycle;Max_cycle;Signal;HPM_P1;HPM_P2
2022/09/22 00:02:02;;;;;;;;;;;;;;;;;;4932196;29;19978;-87
2022/09/22 00:04:27;;;;;;;;;;;;;;;;;;4928590;29;19923;-87
2022/09/22 00:06:55;;;;;;;;;;;;;;;;;;4929375;29;20428;-87
2022/09/22 00:09:20;;;;;;;;;;;;;;;;;;4918501;29;19915;-88
2022/09/22 00:11:45;;;;;;;;;;;;;;;;;;4936762;29;20399;-88
2022/09/22 00:14:11;;;;;;;;;;;;;;;;;;4935433;29;20005;-87
2022/09/22 00:16:36;;;;;;;;;;;;;;;;;;4926141;29;19927;-87
2022/09/22 00:19:01;;;;;;;;;;;;;;;;;;4928036;29;19915;-88
2022/09/22 00:21:26;;;;;;;;;;;;;;;;;;4929246;29;19921;-88
2022/09/22 00:23:52;;;;;;;;;;;;;;;;;;4932894;29;20369;-88
2022/09/22 00:26:17;;;;;;;;;;;;;;;;;;4931319;29;19914;-87
2022/09/22 00:28:44;;;;;;;;;;;;;;;;;;4930736;29;20297;-87
2022/09/22 00:31:09;;;;;;;;;;;;;;;;;;4931913;29;19922;-88
2022/09/22 00:33:34;;;;;;;;;;;;;;;;;;4923143;29;20358;-87
2022/09/22 00:35:59;;;;;;;;;;;;;;;;;;4930721;29;20013;-88
2022/09/22 00:38:24;;;;;;;;;;;;;;;;;;4933182;29;20373;-87
2022/09/22 00:40:50;;;;;;;;;;;;;;;;;;4933302;29;19915;-88
2022/09/22 00:43:15;;;;;;;;;;;;;;;;;;4932764;29;19967;-88
2022/09/22 00:45:40;;;;;;;;;;;;;;;;;;4931653;29;20063;-87
2022/09/22 00:48:05;;;;;;;;;;;;;;;;;;4932555;29;20208;-88
2022/09/22 00:50:30;;;;;;;;;;;;;;;;;;4931193;29;20395;-88
2022/09/22 00:52:55;;;;;;;;;;;;;;;;;;4932119;29;19923;-88
2022/09/22 00:55:22;;;;;;;;;;;;;;;;;;4925850;29;20456;-87
2022/09/22 00:57:47;;;;;;;;;;;;;;;;;;4929956;29;19911;-87
2022/09/22 01:00:12;;;;;;;;;;;;;;;;;;4930657;29;19915;-88
2022/09/22 01:02:37;;;;;;;;;;;;;;;;;;4928746;29;19967;-88
2022/09/22 01:05:02;;;;;;;;;;;;;;;;;;4933863;29;19915;-88
2022/09/22 01:07:27;;;;;;;;;;;;;;;;;;4933345;29;19915;-87
2022/09/22 01:09:54;;;;;;;;;;;;;;;;;;4930502;29;19998;-87
2022/09/22 01:12:19;;;;;;;;;;;;;;;;;;4929771;29;19934;-88
2022/09/22 01:14:45;;;;;;;;;;;;;;;;;;4932199;29;19919;-88
2022/09/22 01:17:10;;;;;;;;;;;;;;;;;;4928914;29;19921;-88
2022/09/22 01:19:35;;;;;;;;;;;;;;;;;;4931297;29;19977;-87
2022/09/22 01:22:02;;;;;;;;;;;;;;;;;;4929767;29;19911;-87
2022/09/22 01:24:27;;;;;;;;;;;;;;;;;;4928716;29;19915;-88
2022/09/22 01:26:52;;;;;;;;;;;;;;;;;;4928968;29;19974;-88
2022/09/22 01:29:17;;;;;;;;;;;;;;;;;;4929207;29;19938;-88
2022/09/22 01:31:42;;;;;;;;;;;;;;;;;;4931899;29;20010;-87
2022/09/22 01:34:07;;;;;;;;;;;;;;;;;;4930749;29;19938;-88
2022/09/22 01:36:33;;;;;;;;;;;;;;;;;;4935594;29;20292;-88
2022/09/22 01:38:58;;;;;;;;;;;;;;;;;;4934178;29;19914;-88
2022/09/22 01:41:23;;;;;;;;;;;;;;;;;;4932401;29;20009;-87
2022/09/22 01:43:48;;;;;;;;;;;;;;;;;;4934076;29;19936;-88
2022/09/22 01:46:16;;;;;;;;;;;;;;;;;;4935994;29;19918;-87
2022/09/22 01:48:41;;;;;;;;;;;;;;;;;;4934491;29;19910;-88
2022/09/22 01:51:06;;;;;;;;;;;;;;;;;;4933155;29;19921;-88
2022/09/22 01:53:32;;;;;;;;;;;;;;;;;;4930210;29;19919;-88
2022/09/22 01:55:58;;;;;;;;;;;;;;;;;;4934973;29;20013;-88
2022/09/22 01:58:23;;;;;;;;;;;;;;;;;;4934074;29;19914;-88
2022/09/22 02:00:49;;;;;;;;;;;;;;;;;;4935924;29;20401;-88
2022/09/22 02:03:14;;;;;;;;;;;;;;;;;;4931449;29;19930;-88
2022/09/22 02:05:39;;;;;;;;;;;;;;;;;;4925244;29;19925;-88
2022/09/22 02:08:04;;;;;;;;;;;;;;;;;;4930968;29;19926;-87
2022/09/22 02:10:29;;;;;;;;;;;;;;;;;;4931899;29;19915;-88
2022/09/22 02:12:54;;;;;;;;;;;;;;;;;;4931433;29;20013;-87
2022/09/22 02:18:03;;;;;;;;;;;;;;;;;;4934657;29;19937;-88
2022/09/22 02:20:28;;;;;;;;;;;;;;;;;;4941955;29;20413;-88
2022/09/22 02:22:54;;;;;;;;;;;;;;;;;;4931729;29;19942;-87
2022/09/22 02:25:19;;;;;;;;;;;;;;;;;;4936268;29;20018;-88
2022/09/22 02:27:44;;;;;;;;;;;;;;;;;;4937595;29;19998;-87
2022/09/22 02:30:09;;;;;;;;;;;;;;;;;;4930957;29;19914;-87
2022/09/22 02:32:35;;;;;;;;;;;;;;;;;;4939613;29;19910;-88
2022/09/22 02:35:00;;;;;;;;;;;;;;;;;;4934834;29;20894;-87
2022/09/22 02:37:26;;;;;;;;;;;;;;;;;;4934040;29;19922;-87
2022/09/22 02:39:51;;;;;;;;;;;;;;;;;;4935944;29;19981;-87
2022/09/22 02:42:16;;;;;;;;;;;;;;;;;;4934814;29;19915;-87
2022/09/22 02:44:41;;;;;;;;;;;;;;;;;;4934322;29;20432;-87
2022/09/22 02:47:06;;;;;;;;;;;;;;;;;;4933446;29;19911;-87
2022/09/22 02:49:34;;;;;;;;;;;;;;;;;;4929945;29;19922;-88
2022/09/22 02:51:59;;;;;;;;;;;;;;;;;;4936395;29;19987;-87
2022/09/22 02:54:24;;;;;;;;;;;;;;;;;;4939350;29;19978;-88
2022/09/22 02:56:49;;;;;;;;;;;;;;;;;;4938752;29;20288;-87
2022/09/22 02:59:15;;;;;;;;;;;;;;;;;;4930259;29;19911;-87
2022/09/22 03:01:40;;;;;;;;;;;;;;;;;;4934375;29;19984;-88
2022/09/22 03:04:06;;;;;;;;;;;;;;;;;;4944969;29;19918;-88
2022/09/22 03:06:31;;;;;;;;;;;;;;;;;;4934486;29;19911;-87
2022/09/22 03:08:56;;;;;;;;;;;;;;;;;;4935506;29;19912;-88
2022/09/22 03:11:21;;;;;;;;;;;;;;;;;;4939080;29;19919;-89
2022/09/22 03:13:46;;;;;;;;;;;;;;;;;;4935174;29;20067;-88
2022/09/22 03:16:11;;;;;;;;;;;;;;;;;;4935991;29;20337;-88
2022/09/22 03:18:37;;;;;;;;;;;;;;;;;;4933164;29;19914;-88
2022/09/22 03:21:02;;;;;;;;;;;;;;;;;;4946303;29;19969;-88
2022/09/22 03:23:27;;;;;;;;;;;;;;;;;;4953834;29;19910;-88
2022/09/22 03:25:52;;;;;;;;;;;;;;;;;;4930952;29;20023;-88
2022/09/22 03:28:18;;;;;;;;;;;;;;;;;;4942998;29;19965;-88
2022/09/22 03:30:43;;;;;;;;;;;;;;;;;;4937593;29;19910;-88
2022/09/22 03:33:08;;;;;;;;;;;;;;;;;;4950692;29;19911;-87
2022/09/22 03:35:34;;;;;;;;;;;;;;;;;;4926109;29;19920;-88
2022/09/22 03:37:59;;;;;;;;;;;;;;;;;;4931367;29;19910;-88
2022/09/22 03:40:24;;;;;;;;;;;;;;;;;;4934087;29;19959;-88
2022/09/22 03:42:50;;;;;;;;;;;;;;;;;;4936214;29;19989;-88
2022/09/22 03:45:15;;;;;;;;;;;;;;;;;;4942261;29;20017;-88
2022/09/22 03:47:40;;;;;;;;;;;;;;;;;;4931207;29;19910;-88
2022/09/22 03:50:05;;;;;;;;;;;;;;;;;;4951817;29;19994;-88
2022/09/22 03:52:30;;;;;;;;;;;;;;;;;;4923008;29;20341;-88
2022/09/22 03:54:55;;;;;;;;;;;;;;;;;;4933848;29;20002;-88
2022/09/22 03:57:21;;;;;;;;;;;;;;;;;;4923277;29;19925;-88
2022/09/22 03:59:46;;;;;;;;;;;;;;;;;;4940448;29;19922;-88
2022/09/22 04:02:11;;;;;;;;;;;;;;;;;;4934658;29;19957;-88
2022/09/22 04:04:36;;;;;;;;;;;;;;;;;;4933847;29;19911;-88
2022/09/22 04:07:02;;;;;;;;;;;;;;;;;;4943426;29;19917;-88
2022/09/22 04:09:27;;;;;;;;;;;;;;;;;;4929634;29;19915;-88
2022/09/22 04:29:51;;;;;;;;;;;;;;;;;;4958593;29;19928;-88
2022/09/22 04:32:16;;;;;;;;;;;;;;;;;;4958805;29;20006;-88
2022/09/22 04:34:42;;;;;;;;;;;;;;;;;;4934048;29;19915;-88
2022/09/22 04:37:07;;;;;;;;;;;;;;;;;;4939227;28;19934;-88
2022/09/22 04:42:08;;;;;;;;;;;;;;;;;;4932320;29;19950;-88
2022/09/22 04:47:05;;;;;;;;;;;;;;;;;;4963499;28;19926;-88
2022/09/22 04:49:30;;;;;;;;;;;;;;;;;;4951751;28;19911;-87
2022/09/22 04:51:56;;;;;;;;;;;;;;;;;;4939906;28;20486;-88
2022/09/22 04:54:21;;;;;;;;;;;;;;;;;;4943865;28;19915;-88
2022/09/22 04:56:46;;;;;;;;;;;;;;;;;;4956250;28;19929;-88
2022/09/22 04:59:11;;;;;;;;;;;;;;;;;;4953639;28;19942;-88
2022/09/22 05:01:37;;;;;;;;;;;;;;;;;;4951207;28;19917;-88
2022/09/22 05:04:02;;;;;;;;;;;;;;;;;;4952106;28;20411;-88
2022/09/22 05:06:27;;;;;;;;;;;;;;;;;;4940516;29;19953;-88
2022/09/22 05:08:52;;;;;;;;;;;;;;;;;;4958420;28;20040;-88
2022/09/22 05:11:20;;;;;;;;;;;;;;;;;;4955548;28;20376;-88
2022/09/22 05:13:45;;;;;;;;;;;;;;;;;;4949498;28;19914;-88
2022/09/22 05:16:11;;;;;;;;;;;;;;;;;;4949107;28;19953;-88
2022/09/22 05:18:38;;;;;;;;;;;;;;;;;;4964394;28;20379;-88
2022/09/22 05:21:03;;;;;;;;;;;;;;;;;;4956246;28;20025;-88
2022/09/22 05:23:31;;;;;;;;;;;;;;;;;;4955541;29;19983;-88
2022/09/22 05:25:56;;;;;;;;;;;;;;;;;;4946779;28;20046;-88
2022/09/22 05:28:21;;;;;;;;;;;;;;;;;;4955245;29;19997;-88
2022/09/22 05:30:46;;;;;;;;;;;;;;;;;;4939302;28;19918;-87
2022/09/22 05:33:12;;;;;;;;;;;;;;;;;;4943039;29;19993;-88
2022/09/22 05:35:37;;;;;;;;;;;;;;;;;;4942753;29;19918;-87
2022/09/22 05:38:02;;;;;;;;;;;;;;;;;;4954856;28;19966;-88
2022/09/22 05:40:27;;;;;;;;;;;;;;;;;;4954638;29;19920;-88
2022/09/22 05:42:53;;;;;;;;;;;;;;;;;;4942208;28;19918;-88
2022/09/22 05:45:18;;;;;;;;;;;;;;;;;;4959524;28;19993;-88
2022/09/22 05:47:43;;;;;;;;;;;;;;;;;;4953777;28;19918;-88
2022/09/22 05:50:08;;;;;;;;;;;;;;;;;;4948030;29;19915;-88
2022/09/22 05:52:34;;;;;;;;;;;;;;;;;;4952893;29;20439;-88
2022/09/22 05:54:59;;;;;;;;;;;;;;;;;;4934525;28;19922;-88
2022/09/22 05:57:26;;;;;;;;;;;;;;;;;;4958560;28;19919;-88
2022/09/22 05:59:53;;;;;;;;;;;;;;;;;;4942328;28;22086;-88
2022/09/22 06:02:18;;;;;;;;;;;;;;;;;;4949394;28;20005;-88
2022/09/22 06:04:43;;;;;;;;;;;;;;;;;;4943554;28;20269;-88
2022/09/22 06:07:09;;;;;;;;;;;;;;;;;;4947930;28;19958;-88
2022/09/22 06:09:34;;;;;;;;;;;;;;;;;;4952985;29;19914;-87
2022/09/22 06:11:59;;;;;;;;;;;;;;;;;;4952449;29;20422;-88
2022/09/22 06:14:25;;;;;;;;;;;;;;;;;;4950873;28;19918;-88
2022/09/22 06:16:50;;;;;;;;;;;;;;;;;;4942740;29;20274;-88
2022/09/22 06:19:15;;;;;;;;;;;;;;;;;;4949070;29;19918;-88
2022/09/22 06:21:40;;;;;;;;;;;;;;;;;;4953244;28;19949;-87
2022/09/22 06:24:05;;;;;;;;;;;;;;;;;;4952215;28;19914;-88
2022/09/22 06:26:30;;;;;;;;;;;;;;;;;;4948430;29;19921;-88
2022/09/22 06:28:56;;;;;;;;;;;;;;;;;;4950625;28;19914;-88
2022/09/22 06:31:21;;;;;;;;;;;;;;;;;;4948425;28;19915;-88
2022/09/22 06:33:47;;;;;;;;;;;;;;;;;;4947420;28;19923;-88
2022/09/22 06:36:12;;;;;;;;;;;;;;;;;;4949930;28;19925;-88
2022/09/22 06:38:37;;;;;;;;;;;;;;;;;;4953013;28;19919;-88
2022/09/22 06:41:03;;;;;;;;;;;;;;;;;;4951821;28;20001;-88
2022/09/22 06:43:28;;;;;;;;;;;;;;;;;;4947598;29;19929;-88
2022/09/22 06:45:54;;;;;;;;;;;;;;;;;;4947039;28;20352;-88
2022/09/22 06:48:22;;;;;;;;;;;;;;;;;;4949782;28;19938;-87
2022/09/22 06:50:47;;;;;;;;;;;;;;;;;;4951765;28;19921;-88
2022/09/22 06:53:13;;;;;;;;;;;;;;;;;;4951115;28;20279;-88
2022/09/22 06:55:41;;;;;;;;;;;;;;;;;;4951006;28;19982;-88
2022/09/22 06:58:07;;;;;;;;;;;;;;;;;;4946301;28;19919;-88
2022/09/22 07:00:32;;;;;;;;;;;;;;;;;;4935173;29;19966;-88
2022/09/22 07:02:57;;;;;;;;;;;;;;;;;;4947103;28;19914;-88
2022/09/22 07:05:22;;;;;;;;;;;;;;;;;;4948308;28;19925;-88
2022/09/22 07:07:47;;;;;;;;;;;;;;;;;;4948625;28;19918;-88
2022/09/22 07:10:13;;;;;;;;;;;;;;;;;;4954174;28;19915;-88
2022/09/22 07:12:38;;;;;;;;;;;;;;;;;;4946867;28;19919;-88
2022/09/22 07:15:03;;;;;;;;;;;;;;;;;;4955638;28;19924;-88
2022/09/22 07:17:30;;;;;;;;;;;;;;;;;;4949681;28;19927;-88
2022/09/22 07:19:56;;;;;;;;;;;;;;;;;;4948886;28;20591;-88
2022/09/22 07:22:22;;;;;;;;;;;;;;;;;;4947178;28;19914;-88
2022/09/22 07:24:47;;;;;;;;;;;;;;;;;;4951343;28;19921;-89
2022/09/22 07:27:13;;;;;;;;;;;;;;;;;;4950253;28;19914;-88
2022/09/22 07:29:38;;;;;;;;;;;;;;;;;;4954065;28;20045;-88
2022/09/22 07:32:03;;;;;;;;;;;;;;;;;;4945497;28;20025;-88
2022/09/22 07:34:29;;;;;;;;;;;;;;;;;;4946472;28;19931;-88
2022/09/22 07:36:54;;;;;;;;;;;;;;;;;;4950067;28;19930;-88
2022/09/22 07:39:19;;;;;;;;;;;;;;;;;;4948052;28;19914;-88
2022/09/22 07:41:45;;;;;;;;;;;;;;;;;;4942608;28;20380;-87
2022/09/22 07:46:54;;;;;;;;;;;;;;;;;;4952702;28;19925;-88
2022/09/22 07:49:21;;;;;;;;;;;;;;;;;;4954798;28;20013;-88
2022/09/22 07:51:46;;;;;;;;;;;;;;;;;;4941938;28;19918;-88
2022/09/22 07:54:11;;;;;;;;;;;;;;;;;;4941056;28;20421;-88
2022/09/22 07:56:38;;;;;;;;;;;;;;;;;;4943306;29;19926;-88
2022/09/22 07:59:07;;;;;;;;;;;;;;;;;;4949648;28;19914;-88
2022/09/22 08:01:33;;;;;;;;;;;;;;;;;;4945871;28;19915;-88
2022/09/22 08:03:58;;;;;;;;;;;;;;;;;;4947604;29;20387;-88
2022/09/22 08:06:23;;;;;;;;;;;;;;;;;;4948234;28;19914;-88
2022/09/22 08:08:52;;;;;;;;;;;;;;;;;;4948085;28;19915;-88
2022/09/22 08:11:17;;;;;;;;;;;;;;;;;;4948753;28;20190;-88
2022/09/22 08:13:42;;;;;;;;;;;;;;;;;;4947628;28;19914;-88
2022/09/22 08:16:09;;;;;;;;;;;;;;;;;;4942757;28;20013;-88
2022/09/22 08:18:35;;;;;;;;;;;;;;;;;;4943896;28;19922;-88
2022/09/22 08:21:00;;;;;;;;;;;;;;;;;;4950338;28;19911;-88
2022/09/22 08:23:26;;;;;;;;;;;;;;;;;;4950125;29;19914;-88
2022/09/22 08:25:51;;;;;;;;;;;;;;;;;;4950043;28;19910;-88
2022/09/22 08:28:16;;;;;;;;;;;;;;;;;;4947500;28;19966;-88
2022/09/22 08:30:42;;;;;;;;;;;;;;;;;;4949945;29;20379;-88
2022/09/22 08:33:07;;;;;;;;;;;;;;;;;;4944575;29;19923;-88
2022/09/22 08:35:33;;;;;;;;;;;;;;;;;;4941446;29;20444;-88
2022/09/22 08:38:00;;;;;;;;;;;;;;;;;;4947237;28;19921;-88
2022/09/22 08:40:25;;;;;;;;;;;;;;;;;;4949232;29;20001;-88
2022/09/22 08:42:53;;;;;;;;;;;;;;;;;;4923599;29;20005;-88
2022/09/22 08:45:20;;;;;;;;;;;;;;;;;;4951486;28;20332;-88
2022/09/22 08:53:13;;;;;;;;;;;;;;;;;;4948730;29;19921;-88
2022/09/22 08:55:40;;;;;;;;;;;;;;;;;;4954634;28;20358;-88
2022/09/22 08:58:06;;;;;;;;;;;;;;;;;;4953422;28;19925;-88
2022/09/22 09:00:31;;;;;;;;;;;;;;;;;;4949388;29;19914;-88
2022/09/22 09:02:57;;;;;;;;;;;;;;;;;;4948559;28;19938;-88
2022/09/22 09:05:22;;;;;;;;;;;;;;;;;;4951539;28;20300;-88
2022/09/22 09:07:48;;;;;;;;;;;;;;;;;;4952023;28;19915;-88
2022/09/22 09:10:14;;;;;;;;;;;;;;;;;;4952576;28;19914;-88
2022/09/22 09:12:39;;;;;;;;;;;;;;;;;;4947336;29;20005;-88
2022/09/22 09:15:04;;;;;;;;;;;;;;;;;;4948041;28;20512;-88
2022/09/22 09:17:30;;;;;;;;;;;;;;;;;;4950958;28;19919;-88
2022/09/22 09:19:55;;;;;;;;;;;;;;;;;;4951205;28;19921;-88
2022/09/22 09:22:26;;;;;;;;;;;;;;;;;;4951579;28;19918;-88
2022/09/22 09:24:51;;;;;;;;;;;;;;;;;;4940777;29;19915;-88
2022/09/22 09:27:17;;;;;;;;;;;;;;;;;;4950879;29;20439;-88
2022/09/22 09:29:43;;;;;;;;;;;;;;;;;;4943238;29;19918;-88
2022/09/22 09:32:08;;;;;;;;;;;;;;;;;;4948038;29;19923;-88
2022/09/22 09:34:33;;;;;;;;;;;;;;;;;;4943430;29;19918;-88
2022/09/22 09:36:58;;;;;;;;;;;;;;;;;;4947366;28;19923;-88
2022/09/22 09:39:24;;;;;;;;;;;;;;;;;;4944198;29;20016;-88
2022/09/22 09:41:49;;;;;;;;;;;;;;;;;;4947514;29;19921;-88
2022/09/22 09:44:14;;;;;;;;;;;;;;;;;;4941771;29;20373;-88
2022/09/22 09:46:40;;;;;;;;;;;;;;;;;;4945146;29;19919;-88
2022/09/22 09:49:05;;;;;;;;;;;;;;;;;;4947541;28;19919;-88
2022/09/22 09:51:30;;;;;;;;;;;;;;;;;;4950187;29;20013;-88
2022/09/22 09:53:55;;;;;;;;;;;;;;;;;;4946144;28;19914;-88
2022/09/22 09:56:20;;;;;;;;;;;;;;;;;;4943516;28;19919;-87
2022/09/22 10:01:30;;;;;;;;;;;;;;;;;;4945425;29;19921;-88
2022/09/22 10:03:56;;;;;;;;;;;;;;;;;;4948885;28;19914;-87
2022/09/22 10:06:22;;;;;;;;;;;;;;;;;;4927422;28;19921;-88
2022/09/22 10:08:48;;;;;;;;;;;;;;;;;;4942358;29;19946;-89
2022/09/22 10:11:14;;;;;;;;;;;;;;;;;;4942627;29;20380;-88
2022/09/22 10:13:39;;;;;;;;;;;;;;;;;;4948845;28;19918;-87
2022/09/22 10:16:04;;;;;;;;;;;;;;;;;;4949899;28;20368;-88
2022/09/22 10:18:29;;;;;;;;;;;;;;;;;;4949743;29;19915;-88
2022/09/22 10:20:54;;;;;;;;;;;;;;;;;;4946052;28;20268;-88
2022/09/22 10:23:20;;;;;;;;;;;;;;;;;;4942592;28;20324;-88
2022/09/22 10:25:45;;;;;;;;;;;;;;;;;;4942591;29;19957;-88
2022/09/22 10:28:10;;;;;;;;;;;;;;;;;;4943041;28;19942;-88
2022/09/22 10:30:38;;;;;;;;;;;;;;;;;;4944571;28;19949;-88
2022/09/22 10:33:04;;;;;;;;;;;;;;;;;;4949392;28;19924;-88
2022/09/22 10:35:29;;;;;;;;;;;;;;;;;;4946834;28;19918;-88
2022/09/22 10:37:54;;;;;;;;;;;;;;;;;;4947484;29;19922;-88
2022/09/22 10:40:19;;;;;;;;;;;;;;;;;;4942820;28;20059;-88
2022/09/22 10:42:47;;;;;;;;;;;;;;;;;;4946843;28;20303;-88
2022/09/22 10:45:12;;;;;;;;;;;;;;;;;;4954726;23;19927;-87
2022/09/22 10:47:40;;;;;;;;;;;;;;;;;;4941023;29;19929;-88
2022/09/22 10:50:05;;;;;;;;;;;;;;;;;;4937492;29;20420;-88
2022/09/22 10:52:33;;;;;;;;;;;;;;;;;;4938111;29;19915;-88
2022/09/22 10:54:58;;;;;;;;;;;;;;;;;;4941417;29;19914;-88
2022/09/22 10:57:24;;;;;;;;;;;;;;;;;;4937254;29;19926;-88
2022/09/22 10:59:49;;;;;;;;;;;;;;;;;;4932506;29;19919;-88
2022/09/22 11:02:14;;;;;;;;;;;;;;;;;;4927957;29;19911;-88
2022/09/22 11:04:39;;;;;;;;;;;;;;;;;;4921853;29;20312;-88
2022/09/22 11:12:32;;;;;;;;;;;;;;;;;;4936095;29;19979;-88
2022/09/22 11:14:57;;;;;;;;;;;;;;;;;;4934011;29;19914;-88
2022/09/22 11:17:23;;;;;;;;;;;;;;;;;;4932162;29;19919;-88
2022/09/22 11:19:48;;;;;;;;;;;;;;;;;;4935359;29;20149;-88
2022/09/22 11:22:13;;;;;;;;;;;;;;;;;;4925006;29;20144;-88
2022/09/22 11:24:39;;;;;;;;;;;;;;;;;;4927736;29;20306;-88
2022/09/22 11:27:04;;;;;;;;;;;;;;;;;;4921520;29;19911;-89
2022/09/22 11:29:29;;;;;;;;;;;;;;;;;;4928877;29;19925;-88
2022/09/22 11:31:54;;;;;;;;;;;;;;;;;;4932354;29;19915;-88
2022/09/22 11:34:19;;;;;;;;;;;;;;;;;;4928673;29;19914;-88
2022/09/22 11:36:44;;;;;;;;;;;;;;;;;;4931307;29;19919;-88
2022/09/22 11:39:10;;;;;;;;;;;;;;;;;;4928861;29;20002;-88
2022/09/22 11:41:36;;;;;;;;;;;;;;;;;;4927488;29;20439;-88
2022/09/22 11:44:01;;;;;;;;;;;;;;;;;;4932810;29;19923;-88
2022/09/22 11:46:26;;;;;;;;;;;;;;;;;;4928467;28;20224;-88
2022/09/22 11:48:51;;;;;;;;;;;;;;;;;;4919549;29;19922;-88
2022/09/22 11:51:16;;;;;;;;;;;;;;;;;;4927281;29;19997;-87
2022/09/22 11:53:42;;;;;;;;;;;;;;;;;;4923579;29;19935;-88
2022/09/22 11:56:07;;;;;;;;;;;;;;;;;;4925554;29;19925;-88
2022/09/22 11:58:32;;;;;;;;;;;;;;;;;;4925048;29;20289;-88
2022/09/22 12:00:58;;;;;;;;;;;;;;;;;;4927323;29;19925;-88
2022/09/22 12:03:24;;;;;;;;;;;;;;;;;;4922534;29;20297;-88
2022/09/22 12:05:49;;;;;;;;;;;;;;;;;;4926319;29;19923;-88
2022/09/22 12:08:15;;;;;;;;;;;;;;;;;;4926640;29;19919;-88
2022/09/22 12:10:41;;;;;;;;;;;;;;;;;;4927523;29;20373;-88
2022/09/22 12:13:07;;;;;;;;;;;;;;;;;;4925754;29;20005;-89
2022/09/22 12:15:32;;;;;;;;;;;;;;;;;;4923222;28;20001;-88
2022/09/22 12:17:58;;;;;;;;;;;;;;;;;;4924738;29;19922;-88
2022/09/22 12:20:24;;;;;;;;;;;;;;;;;;4922682;29;19914;-88
2022/09/22 12:22:49;;;;;;;;;;;;;;;;;;4928369;29;19919;-88
2022/09/22 12:25:14;;;;;;;;;;;;;;;;;;4922422;29;19915;-88
2022/09/22 12:27:39;;;;;;;;;;;;;;;;;;4925829;29;19925;-88
2022/09/22 12:30:04;;;;;;;;;;;;;;;;;;4922648;29;19971;-88
2022/09/22 12:32:30;;;;;;;;;;;;;;;;;;4922990;29;19938;-87
2022/09/22 12:34:56;;;;;;;;;;;;;;;;;;4927021;29;20000;-87
2022/09/22 12:37:21;;;;;;;;;;;;;;;;;;4930917;29;20396;-87
2022/09/22 12:39:46;;;;;;;;;;;;;;;;;;4924860;29;20337;-87
2022/09/22 12:42:11;;;;;;;;;;;;;;;;;;4924086;29;19937;-87
2022/09/22 12:44:37;;;;;;;;;;;;;;;;;;4922945;29;19919;-87
2022/09/22 12:47:03;;;;;;;;;;;;;;;;;;4927317;28;20276;-87
2022/09/22 12:49:28;;;;;;;;;;;;;;;;;;4926846;29;19994;-88
2022/09/22 12:51:54;;;;;;;;;;;;;;;;;;4923462;29;19950;-88
2022/09/22 12:54:21;;;;;;;;;;;;;;;;;;4922559;29;19919;-88
2022/09/22 12:56:46;;;;;;;;;;;;;;;;;;4927682;29;19998;-88
2022/09/22 12:59:12;;;;;;;;;;;;;;;;;;4923336;29;19957;-88
2022/09/22 13:01:38;;;;;;;;;;;;;;;;;;4923476;29;19915;-87
2022/09/22 13:04:03;;;;;;;;;;;;;;;;;;4924493;29;19938;-88
2022/09/22 13:06:28;;;;;;;;;;;;;;;;;;4928968;29;20005;-87
2022/09/22 13:08:53;;;;;;;;;;;;;;;;;;4924597;29;20288;-88
2022/09/22 13:11:18;;;;;;;;;;;;;;;;;;4926307;29;19919;-88
2022/09/22 13:13:44;;;;;;;;;;;;;;;;;;4931644;29;20005;-88
2022/09/22 13:16:09;;;;;;;;;;;;;;;;;;4930423;29;19923;-88
2022/09/22 13:18:34;;;;;;;;;;;;;;;;;;4929293;29;19915;-87
2022/09/22 13:20:59;;;;;;;;;;;;;;;;;;4927907;29;19915;-88
2022/09/22 13:23:25;;;;;;;;;;;;;;;;;;4919853;29;19915;-88
2022/09/22 13:25:53;;;;;;;;;;;;;;;;;;4931106;29;19958;-88
2022/09/22 13:28:19;;;;;;;;;;;;;;;;;;4930622;29;20344;-88
2022/09/22 13:30:44;;;;;;;;;;;;;;;;;;4925795;29;19914;-88
2022/09/22 13:33:09;;;;;;;;;;;;;;;;;;4937316;29;19935;-88
2022/09/22 13:35:34;;;;;;;;;;;;;;;;;;4929299;29;20442;-88
2022/09/22 13:37:59;;;;;;;;;;;;;;;;;;4938502;29;19953;-88
2022/09/22 13:40:25;;;;;;;;;;;;;;;;;;4934300;29;20122;-88
2022/09/22 13:42:50;;;;;;;;;;;;;;;;;;4937972;29;19957;-87
2022/09/22 13:45:17;;;;;;;;;;;;;;;;;;4934509;28;20176;-87
2022/09/22 13:47:42;;;;;;;;;;;;;;;;;;4932290;29;20285;-88
2022/09/22 13:50:08;;;;;;;;;;;;;;;;;;4935702;29;19914;-88
2022/09/22 13:52:33;;;;;;;;;;;;;;;;;;4936076;29;19919;-88
2022/09/22 13:54:58;;;;;;;;;;;;;;;;;;4941359;28;19919;-88
2022/09/22 13:57:23;;;;;;;;;;;;;;;;;;4939322;29;19958;-88
2022/09/22 13:59:49;;;;;;;;;;;;;;;;;;4935361;29;19926;-88
2022/09/22 14:02:14;;;;;;;;;;;;;;;;;;4942887;29;19915;-87
2022/09/22 14:04:39;;;;;;;;;;;;;;;;;;4935255;29;19947;-87
2022/09/22 14:07:04;;;;;;;;;;;;;;;;;;4938156;28;19915;-88
2022/09/22 14:09:29;;;;;;;;;;;;;;;;;;4935068;29;19978;-87
2022/09/22 14:11:56;;;;;;;;;;;;;;;;;;4938836;29;19915;-88
2022/09/22 14:14:22;;;;;;;;;;;;;;;;;;4942629;29;19919;-88
2022/09/22 14:16:47;;;;;;;;;;;;;;;;;;4934362;29;19919;-88
2022/09/22 14:19:12;;;;;;;;;;;;;;;;;;4934442;29;19921;-88
2022/09/22 14:21:38;;;;;;;;;;;;;;;;;;4933885;29;19915;-88
2022/09/22 14:24:03;;;;;;;;;;;;;;;;;;4935603;29;20293;-88
2022/09/22 14:26:32;;;;;;;;;;;;;;;;;;4933197;29;19915;-88
2022/09/22 14:28:57;;;;;;;;;;;;;;;;;;4936807;29;19915;-88
2022/09/22 14:31:23;;;;;;;;;;;;;;;;;;4935667;29;20090;-88
2022/09/22 14:33:48;;;;;;;;;;;;;;;;;;4934597;29;19919;-88
2022/09/22 14:36:13;;;;;;;;;;;;;;;;;;4937398;29;19986;-87
2022/09/22 14:38:38;;;;;;;;;;;;;;;;;;4933293;29;20128;-87
2022/09/22 14:41:03;;;;;;;;;;;;;;;;;;4936101;29;19915;-88
2022/09/22 14:43:29;;;;;;;;;;;;;;;;;;4933709;29;19923;-87
2022/09/22 14:45:55;;;;;;;;;;;;;;;;;;4936895;28;19963;-87
2022/09/22 14:48:20;;;;;;;;;;;;;;;;;;4931762;29;19929;-87
2022/09/22 14:50:45;;;;;;;;;;;;;;;;;;4926332;29;19958;-88
2022/09/22 14:53:11;;;;;;;;;;;;;;;;;;4937079;29;19947;-88
2022/09/22 14:55:36;;;;;;;;;;;;;;;;;;4936723;29;19918;-88
2022/09/22 14:58:01;;;;;;;;;;;;;;;;;;4936125;29;19915;-88
2022/09/22 15:03:10;;;;;;;;;;;;;;;;;;4937756;29;19953;-88
2022/09/22 15:05:36;;;;;;;;;;;;;;;;;;4942441;29;19915;-87
2022/09/22 15:08:01;;;;;;;;;;;;;;;;;;4941867;29;19950;-88
2022/09/22 15:10:27;;;;;;;;;;;;;;;;;;4922665;29;19921;-88
2022/09/22 15:12:54;;;;;;;;;;;;;;;;;;4947786;29;19986;-88
2022/09/22 15:15:19;;;;;;;;;;;;;;;;;;4936699;29;19915;-87
2022/09/22 15:20:29;;;;;;;;;;;;;;;;;;4943223;29;19922;-88
2022/09/22 15:22:54;;;;;;;;;;;;;;;;;;4938695;29;19915;-87
2022/09/22 15:25:19;;;;;;;;;;;;;;;;;;4939851;29;19930;-88
2022/09/22 15:27:44;;;;;;;;;;;;;;;;;;4941159;29;20312;-87
2022/09/22 15:30:09;;;;;;;;;;;;;;;;;;4936140;29;19930;-88
2022/09/22 15:32:35;;;;;;;;;;;;;;;;;;4944707;29;19953;-88
2022/09/22 15:35:03;;;;;;;;;;;;;;;;;;4943475;29;20280;-88
2022/09/22 15:37:29;;;;;;;;;;;;;;;;;;4941995;29;19920;-88
2022/09/22 15:39:54;;;;;;;;;;;;;;;;;;4938394;29;19979;-88
2022/09/22 15:42:20;;;;;;;;;;;;;;;;;;4937560;29;19927;-88
2022/09/22 15:44:46;;;;;;;;;;;;;;;;;;4940021;29;19962;-87
2022/09/22 15:47:15;;;;;;;;;;;;;;;;;;4943755;29;19934;-88
2022/09/22 15:49:41;;;;;;;;;;;;;;;;;;4936475;29;19919;-88
2022/09/22 15:52:06;;;;;;;;;;;;;;;;;;4939126;29;19915;-88
2022/09/22 15:54:32;;;;;;;;;;;;;;;;;;4922805;29;19915;-87
2022/09/22 15:56:59;;;;;;;;;;;;;;;;;;4942379;29;19926;-88
2022/09/22 15:59:26;;;;;;;;;;;;;;;;;;4935438;29;19914;-88
2022/09/22 16:01:54;;;;;;;;;;;;;;;;;;4934283;29;20282;-87
2022/09/22 16:04:19;;;;;;;;;;;;;;;;;;4937242;29;19919;-88
2022/09/22 16:06:46;;;;;;;;;;;;;;;;;;4937663;29;19961;-87
2022/09/22 16:09:11;;;;;;;;;;;;;;;;;;4940595;29;20327;-88
2022/09/22 16:11:36;;;;;;;;;;;;;;;;;;4934621;29;19946;-87
2022/09/22 16:14:04;;;;;;;;;;;;;;;;;;4943349;29;19914;-87
2022/09/22 16:16:29;;;;;;;;;;;;;;;;;;4941302;29;19923;-87
2022/09/22 16:18:55;;;;;;;;;;;;;;;;;;4937119;29;19980;-87
2022/09/22 16:21:20;;;;;;;;;;;;;;;;;;4934644;29;19983;-88
2022/09/22 16:23:46;;;;;;;;;;;;;;;;;;4947673;29;19929;-87
2022/09/22 16:26:11;;;;;;;;;;;;;;;;;;4939963;29;19914;-87
2022/09/22 16:28:37;;;;;;;;;;;;;;;;;;4934655;29;19982;-87
2022/09/22 16:31:02;;;;;;;;;;;;;;;;;;4930841;29;20175;-88
2022/09/22 16:33:27;;;;;;;;;;;;;;;;;;4945678;29;19915;-88
2022/09/22 16:35:53;;;;;;;;;;;;;;;;;;4931507;29;19926;-88
2022/09/22 16:38:19;;;;;;;;;;;;;;;;;;4939660;29;20248;-88
2022/09/22 16:40:44;;;;;;;;;;;;;;;;;;4932593;29;19946;-87
2022/09/22 16:43:09;;;;;;;;;;;;;;;;;;4944469;29;20377;-88
2022/09/22 16:48:18;;;;;;;;;;;;;;;;;;4932541;29;20296;-88
2022/09/22 16:50:45;;;;;;;;;;;;;;;;;;4931213;29;19914;-88
2022/09/22 16:53:13;;;;;;;;;;;;;;;;;;4925121;29;19915;-87
2022/09/22 16:55:38;;;;;;;;;;;;;;;;;;4930440;29;19943;-88
2022/09/22 16:58:04;;;;;;;;;;;;;;;;;;4925018;29;19919;-88
2022/09/22 17:00:31;;;;;;;;;;;;;;;;;;4927234;29;19915;-88
2022/09/22 17:02:56;;;;;;;;;;;;;;;;;;4916968;29;20330;-87
2022/09/22 17:05:21;;;;;;;;;;;;;;;;;;4926465;29;19916;-88
2022/09/22 17:07:48;;;;;;;;;;;;;;;;;;4929490;29;19922;-88
2022/09/22 17:10:14;;;;;;;;;;;;;;;;;;4932390;29;20320;-88
2022/09/22 17:12:41;;;;;;;;;;;;;;;;;;4929885;29;20262;-88
2022/09/22 17:15:08;;;;;;;;;;;;;;;;;;4935176;29;19914;-88
2022/09/22 17:17:35;;;;;;;;;;;;;;;;;;4925177;29;19966;-88
2022/09/22 17:20:00;;;;;;;;;;;;;;;;;;4929079;29;19915;-88
2022/09/22 17:22:25;;;;;;;;;;;;;;;;;;4931930;29;19922;-88
2022/09/22 17:24:53;;;;;;;;;;;;;;;;;;4933492;29;19943;-87